Aviation Digital Data Service (ADDS)

Output produced by METARs form (1227 UTC 15 November 2018)
found at http://www.aviationweather.gov/metar/data/
 
KSAC 151122Z 1512/1612 VRB03KT 2SM HZ FU SCT035 
     FM151900 VRB04KT 3SM HZ FU SCT250
       
KSAF 151120Z 1512/1612 35014KT P6SM SKC 
     FM151900 33007KT P6SM FEW250 
     FM160100 VRB03KT P6SM FEW250
       
KSAN 151126Z 1512/1618 VRB04KT P6SM SKC 
     FM152000 29008KT P6SM SCT250 
     FM160100 VRB04KT P6SM SCT005 BKN250 
     TEMPO 1608/1612 2SM BR BKN004
       
KSAT 151125Z 1512/1618 31003KT P6SM FEW250 
     FM151500 21006KT P6SM FEW250
       
KSAV 151137Z 1512/1612 31012KT P6SM BKN008 BKN015 
     TEMPO 1512/1515 6SM -RADZ BKN005 
     FM151600 30009KT P6SM OVC012 
     FM151900 29008KT P6SM BKN025 
     FM152200 28010KT P6SM SCT020
       
KSBA 151123Z 1512/1612 VRB03KT P6SM SKC 
     FM151800 16006KT P6SM SCT250 
     FM152200 24008KT P6SM SCT250 
     FM160200 VRB03KT P6SM SCT250
       
KSBD 151126Z 1512/1612 VRB04KT P6SM SKC 
     FM152100 26007KT P6SM SCT250 
     FM160300 VRB04KT P6SM BKN250
       
KSBN 151120Z 1512/1612 09009KT 4SM -SNPL OVC070 
     TEMPO 1512/1516 1 1/2SM -SN OVC007 
     FM151600 10005KT 4SM BR OVC006 
     FM152200 23005KT P6SM OVC012
       
KSBP 151123Z 1512/1612 VRB03KT P6SM SKC 
     FM152100 30009KT P6SM SCT250 
     FM160200 VRB03KT P6SM SCT250
       
KSBY 151142Z 1512/1612 04010KT P6SM -RA BKN025 OVC035 
     FM151400 06014G22KT 4SM -RA OVC025 
     FM151600 07016G24KT 2SM RA BR OVC008 
     FM160200 09012G20KT 2SM -RA BR OVC005 
     FM160400 12012KT P6SM OVC004 
     FM160600 26014G22KT P6SM OVC008 
     FM161000 27014G22KT P6SM BKN015
       
KSCK 151122Z 1512/1612 VRB02KT 2SM HZ FU OVC015 
     FM151800 VRB04KT 3SM HZ FU BKN035
       
KSDF 151131Z 1512/1618 VRB05KT 5SM -DZ BR OVC005 
     FM151700 25010G18KT P6SM VCSH OVC007 
     TEMPO 1518/1522 5SM -SN BKN012 
     FM152300 25008KT P6SM OVC010 
     FM160800 23007KT P6SM SKC
       
KSDL 151121Z 1512/1612 VRB04KT P6SM FEW250
       
KSDY 151128Z 1512/1612 29014KT P6SM SCT020 BKN050 
     FM160000 29008KT P6SM BKN030 
     FM160600 VRB04KT 3SM -SN OVC020
       
KSEA 151135Z 1512/1618 18005KT P6SM OVC012 
     TEMPO 1512/1514 OVC009 
     FM152000 22005KT P6SM SCT020 BKN050 
     FM160500 17006KT P6SM VCSH OVC020 
     FM161000 18009KT P6SM -RA OVC015
       
KSEZ 151120Z 1512/1612 03012G20KT P6SM SKC 
     FM151500 VRB06KT P6SM FEW250 
     FM160300 04012G20KT P6SM SCT250
       
KSFB 151147Z 1512/1612 28012KT P6SM SCT005 BKN012 
     TEMPO 1512/1513 BKN005 
     FM151300 28008KT P6SM BKN015 BKN025 OVC040 
     FM151700 31011KT P6SM SCT030 SCT060 SCT120 
     FM160000 32009KT P6SM SCT150
       
KSFF 151130Z 1512/1612 VRB02KT 1/2SM FG OVC005 
     TEMPO 1512/1515 2SM BR BKN015 
     FM151500 00000KT 3SM BR BKN005 
     FM151700 20004KT P6SM BKN015 
     FM160600 VRB03KT 6SM -SHRA OVC008
       
KSFO 151121Z 1512/1618 VRB04KT 4SM FU HZ FEW008 SCT030 
     FM152300 29010KT 4SM FU HZ FEW020 FEW250 
     FM160300 VRB04KT 4SM FU HZ FEW020 FEW250 
     FM160800 VRB04KT 3SM FU HZ FEW010 BKN030
       
KSGF 151120Z 1512/1612 VRB03KT P6SM SKC 
     FM151500 24005KT P6SM SKC
       
KSGJ 151120Z 1512/1612 28010KT 6SM -RA OVC005 
     FM151600 30009KT P6SM VCSH SCT007 OVC015 
     FM160200 29003KT P6SM BKN025 BKN120
       
KSGU 151120Z 1512/1612 VRB04KT P6SM SKC 
     FM152200 24006KT P6SM SKC
       
KSHR 151137Z 1512/1612 32007KT P6SM SKC 
     FM151500 32015KT P6SM FEW150 
     FM151900 32013G21KT P6SM SCT150 
     FM160000 VRB06KT P6SM SCT120 
     FM160700 VRB04KT P6SM BKN100
       
KSHV 151120Z 1512/1612 VRB03KT P6SM SKC 
     FM151500 25006KT P6SM SKC 
     FM152100 24006KT P6SM SCT250 
     FM160000 22003KT P6SM BKN250
       
KSJC 151121Z 1512/1612 VRB03KT 2SM FU HZ FEW010 BKN020 
     FM152000 31007KT 3SM FU HZ FEW010 SCT025 
     FM160400 VRB03KT 3SM FU HZ FEW008 BKN025
       
KSJT 151120Z 1512/1612 21009KT P6SM SKC
       
TAF KSKA 151103Z 1511/1617 15006KT 9999 FEW050 SCT150 QNH3030INS 
     BECMG 1512/1513 14004KT 8000 BR SCT010 SCT060 QNH3029INS 
     TEMPO 1514/1517 4800 BR BKN008 
     BECMG 1517/1518 17006KT 9999 NSW BKN010 BKN070 620405 QNH3008INS 
     BECMG 1522/1523 22009KT 9999 SCT015 OVC070 620704 QNH3008INS 
     BECMG 1609/1610 25006KT 8000 -SHRA SCT010 BKN040 OVC085 650607 QNH3008INS
TX06/1521Z TNM03/1511Z
       
TAF KSKF 151000Z 1510/1616 VRB06KT 9999 SKC QNH3025INS 
     BECMG 1515/1516 14006KT 9999 SCT300 QNH3020INS TX16/1520Z TN00/1510Z
       
KSLC 151120Z 1512/1618 15006KT P6SM SKC 
     FM151900 33006KT P6SM SCT200 
     FM160300 15006KT P6SM SCT200
       
KSLE 151140Z 1512/1612 33003KT 4SM BR SCT009 OVC018 
     TEMPO 1512/1516 BKN009 
     FM152000 35003KT 5SM BR SCT008 OVC020 
     FM152300 01005KT P6SM SCT025 
     FM160400 VRB03KT 3SM BR SCT007 BKN012
       
TAF KSLI 150504Z 1505/1611 VRB06KT 9999 SKC QNH3007INS 
     BECMG 1516/1517 26009KT 9999 FEW300 QNH2998INS 
     BECMG 1603/1604 VRB06KT 9999 FEW250 QNH2997INS TX24/1523Z TN13/1514Z
       
KSLK 151132Z 1512/1612 00000KT P6SM SCT250 
     FM160300 VRB04KT P6SM VCSH OVC050 
     FM160600 12005KT 1SM -SN BR OVC020
       
KSLN 151132Z 1512/1612 19009KT P6SM SKC 
     FM152000 33009KT P6SM SKC
       
KSME 151140Z 1512/1612 11004KT 5SM -RA BR OVC005 
     FM151500 25005KT 3SM -RA BR OVC005 
     FM151900 26008KT 6SM -RASN OVC008 
     FM152100 26009KT 5SM -SN OVC010 
     FM160100 23007KT P6SM OVC010
       
KSMF 151122Z 1512/1612 VRB05KT 2SM HZ FU BKN015 OVC035 
     FM151900 VRB04KT 3SM HZ FU SCT250
       
KSMN 151129Z 1512/1612 VRB03KT P6SM BKN060
       
KSMO 151123Z 1512/1612 VRB03KT P6SM SKC 
     FM152000 23007KT P6SM SCT250 
     FM160200 VRB03KT P6SM SCT250
       
KSMX 151123Z 1512/1612 VRB03KT P6SM SKC 
     FM152100 30009KT P6SM SCT250 
     FM160200 VRB03KT P6SM SCT250
       
KSNA 151126Z 1512/1612 VRB04KT P6SM SKC 
     FM152000 22008KT P6SM SCT250 
     FM160100 VRB04KT P6SM SCT004 BKN250 
     TEMPO 1610/1612 1SM BR BKN003
       
KSNS 151121Z 1512/1612 12008KT P6SM FEW250 
     FM152100 30010KT 6SM FU HZ FEW250 
     FM160300 VRB04KT 5SM FU HZ FEW250 
     FM160700 12005KT 6SM FU HZ FEW250
       
KSNY 151120Z 1512/1612 31012KT P6SM SCT250 
     FM151700 34020G28KT P6SM SCT250 
     FM160000 30008KT P6SM FEW250
       
KSPS 151120Z 1512/1612 21008KT P6SM SKC
       
KSRQ 151120Z 1512/1612 35011KT P6SM SCT020 BKN070 
     TEMPO 1513/1517 BKN025 
     FM151700 32013G20KT P6SM BKN025 
     FM152200 32011G17KT P6SM SCT025 BKN100 
     FM160100 33010KT P6SM SCT130 
     FM160900 36010KT P6SM SCT130
       
TAF AMD KSSC 151010Z 1510/1614 03010G15KT 8000 RA BR BKN008 OVC025 WS020/09050KT
540204 QNH2996INS 
     TEMPO 1510/1515 05015G25KT 4800 +RA 
     BECMG 1514/1515 30010G15KT 8000 RA BKN010 OVC020 510103 QNH2995INS 
     BECMG 1517/1518 28015G20KT 9999 NSW BKN015 QNH2995INS 
     BECMG 1608/1609 28006KT 9999 SKC QNH2991INS TX10/1521Z TN01/1608Z
       
KSSF 151125Z 1512/1612 20005KT P6SM FEW250
       
KSTC 151120Z 1512/1612 18012KT P6SM FEW200 
     FM151600 21011KT P6SM FEW070 SCT120 
     FM152200 29012G18KT P6SM SCT025 OVC070 
     FM160100 31014G25KT 3SM -SHSN OVC025 
     TEMPO 1601/1604 1 1/2SM -SHSN OVC015 
     FM160400 31015G25KT P6SM OVC020 
     FM160700 31013KT P6SM BKN020 OVC050
       
KSTL 151137Z 1512/1618 31007KT 2SM -SN SCT007 OVC012 
     FM151500 31007KT 6SM -SN OVC015 
     FM151900 29006KT P6SM VCSH BKN015 
     FM152100 27005KT P6SM SCT110 
     FM160500 21006KT P6SM SKC
       
KSTS 151121Z 1512/1612 VRB04KT 6SM FU HZ FEW200 
     FM160000 16004KT 6SM FU HZ FEW200 
     FM160500 VRB04KT 6SM FU HZ SKC
       
KSUA 151147Z 1512/1612 VRB03KT P6SM FEW010 SCT020 SCT070 
     TEMPO 1514/1517 4SM SHRA BKN010 
     FM151700 32008KT P6SM SCT015 SCT025 BKN040 
     FM152000 30010KT P6SM SCT030 BKN060 
     FM160300 31008KT P6SM SCT050 SCT150
       
KSUN 151120Z 1512/1618 31008KT P6SM FEW180 
     FM151800 15008KT P6SM FEW120 
     FM152100 25008KT P6SM FEW120 
     FM160200 32008KT P6SM FEW090 FEW200 AMD LTD TO CLD VIS AND WIND TIL 151300
       
KSUS 151137Z 1512/1612 30005KT 2SM -SN SCT007 OVC012 
     FM151500 31007KT 6SM -SN OVC015 
     FM151800 29006KT P6SM OVC015 
     FM152000 27006KT P6SM SCT110 
     FM152200 23005KT P6SM FEW250
       
TAF KSUU 1511/1617 VRB06KT 9000 FU FEW200 QNH3018INS 
     BECMG 1517/1518 02009KT 9000 FU FEW200 QNH3006INS TX18/1522Z TNM01/1514Z
       
KSUX 151129Z 1512/1612 15007KT P6SM SCT250 
     FM151500 18005KT P6SM FEW250 
     FM151800 27008KT P6SM SKC 
     FM152300 30015G23KT P6SM FEW250 
     FM160000 30010KT P6SM SCT200 
     FM161100 30006KT P6SM SCT090
       
KSWF 151124Z 1512/1618 09007KT P6SM OVC200 
     FM151400 09007KT P6SM OVC120 
     FM151900 09007KT 1SM -SN BKN030 OVC080 
     FM152100 09010KT 2SM -SNPL OVC010 
     TEMPO 1521/1524 1SM -SN 
     FM160100 09012G20KT 2SM -FZRAPL BR OVC009 
     FM160300 06013G26KT 4SM -FZRA BR OVC009 
     FM160900 02012G18KT 4SM -FZRA BR OVC010 
     FM161200 33012KT P6SM VCSH BKN015 BKN030 
     FM161500 30013G19KT P6SM SCT040 AMD NOT SKED
       
KSYR 151131Z 1512/1612 11007KT P6SM BKN200 
     FM152200 11007KT P6SM OVC070 
     FM160000 10007KT 1SM -SN OVC015 
     FM160300 07007KT 1/2SM SN OVC007 
     FM161000 VRB04KT 2SM -SN OVC010
       
TAF KSZL 151100Z 1511/1617 25009KT 9999 SKC QNH2998INS TX07/1521Z TNM10/1512Z